PWSweather.com
Personal Weather Stations
Station Observations
KAZSIERR7
Canyon De Flores, Sierra Vista, AZ 85650

Canyon De FloresSierra Vista, AZ 85650

Lat: 31.5, Lon: -110.26

Elevation: 4645

Station Type: LaCrosse WS-3610 & Boltek Lightning Detector

http://www.lightningring.com/weather/

High Low Average
Temperature 84.6°F29.2°F 60.9°F16.1°F 67.6°F19.8°F
Dew Point 64.6°F18.1°F 56.0°F13.3°F 59.6°F15.3°F
Winds 12.3 mph NE19.8 mph NE Calm Calm 0.9 mph 1.4 mph
Wind Gusts 44.2 mph71.1 mph -- 3.4 mph5.5 mph
Humidity 92% 40% 77%
Pressure 30.15 in1021.00 in 30.05 in1017.60 in -
Precipitation 3.76 in95.50 in - -
Hour Temp Dew Point Humidity Winds Wind Gusts Pressure Precip Precip Rate Daily Precip Total
12:10 AM 61.8°F16.6°C 58.5°F14.7°C 89% Calm Calm -- 30.14 in1020.7 mb 0.00 in0.0 mm 0.00 in/hr0.0 mm/hr 0.00 in0.0 mm
12:20 AM 62.4°F16.9°C 59.1°F15.1°C 89% Calm Calm -- 30.13 in1020.3 mb 0.00 in0.0 mm 0.00 in/hr0.0 mm/hr 0.00 in0.0 mm
12:31 AM 62.7°F17.1°C 59.1°F15.1°C 88% Calm Calm 2.2 mph3.5 kmh 30.13 in1020.3 mb 0.00 in0.0 mm 0.00 in/hr0.0 mm/hr 0.00 in0.0 mm
12:41 AM 63.3°F17.4°C 59.4°F15.2°C 87% Calm Calm -- 30.13 in1020.3 mb 0.00 in0.0 mm 0.00 in/hr0.0 mm/hr 0.00 in0.0 mm
12:52 AM 64.2°F17.9°C 59.0°F15.0°C 83% Calm Calm 2.2 mph3.5 kmh 30.13 in1020.3 mb 0.00 in0.0 mm 0.00 in/hr0.0 mm/hr 0.00 in0.0 mm
01:02 AM 63.6°F17.6°C 59.0°F15.0°C 85% Calm Calm -- 30.13 in1020.3 mb 0.00 in0.0 mm 0.00 in/hr0.0 mm/hr 0.00 in0.0 mm
01:13 AM 63.4°F17.4°C 58.8°F14.9°C 85% Calm Calm -- 30.13 in1020.3 mb 0.00 in0.0 mm 0.00 in/hr0.0 mm/hr 0.00 in0.0 mm
01:23 AM 63.3°F17.4°C 59.4°F15.2°C 87% Calm Calm -- 30.13 in1020.3 mb 0.00 in0.0 mm 0.00 in/hr0.0 mm/hr 0.00 in0.0 mm
01:34 AM 63.3°F17.4°C 59.7°F15.4°C 88% Calm Calm -- 30.13 in1020.3 mb 0.00 in0.0 mm 0.00 in/hr0.0 mm/hr 0.00 in0.0 mm
01:44 AM 64.3°F17.9°C 59.4°F15.2°C 84% Calm Calm -- 30.13 in1020.3 mb 0.00 in0.0 mm 0.00 in/hr0.0 mm/hr 0.00 in0.0 mm
01:55 AM 64.5°F18.1°C 59.3°F15.2°C 83% 1.9 mph SE3.1 kmh SE 2.6 mph4.2 kmh 30.12 in1020.0 mb 0.00 in0.0 mm 0.00 in/hr0.0 mm/hr 0.00 in0.0 mm
02:05 AM 64.3°F17.9°C 59.4°F15.2°C 84% Calm Calm -- 30.12 in1020.0 mb 0.00 in0.0 mm 0.00 in/hr0.0 mm/hr 0.00 in0.0 mm
02:16 AM 64.3°F17.9°C 59.4°F15.2°C 84% Calm Calm -- 30.12 in1020.0 mb 0.00 in0.0 mm 0.00 in/hr0.0 mm/hr 0.00 in0.0 mm
02:26 AM 63.8°F17.7°C 59.2°F15.1°C 85% Calm Calm -- 30.12 in1020.0 mb 0.00 in0.0 mm 0.00 in/hr0.0 mm/hr 0.00 in0.0 mm
02:37 AM 63.4°F17.4°C 59.1°F15.1°C 86% Calm Calm -- 30.12 in1020.0 mb 0.00 in0.0 mm 0.00 in/hr0.0 mm/hr 0.00 in0.0 mm
02:47 AM 63.6°F17.6°C 59.3°F15.2°C 86% Calm Calm -- 30.12 in1020.0 mb 0.00 in0.0 mm 0.00 in/hr0.0 mm/hr 0.00 in0.0 mm
02:58 AM 63.4°F17.4°C 59.5°F15.3°C 87% Calm Calm -- 30.12 in1020.0 mb 0.00 in0.0 mm 0.00 in/hr0.0 mm/hr 0.00 in0.0 mm
03:08 AM 63.3°F17.4°C 59.7°F15.4°C 88% Calm Calm -- 30.12 in1020.0 mb 0.00 in0.0 mm 0.00 in/hr0.0 mm/hr 0.00 in0.0 mm
03:18 AM 63.4°F17.4°C 59.8°F15.4°C 88% Calm Calm -- 30.12 in1020.0 mb 0.00 in0.0 mm 0.00 in/hr0.0 mm/hr 0.00 in0.0 mm
03:29 AM 63.6°F17.6°C 60.0°F15.6°C 88% Calm Calm -- 30.12 in1020.0 mb 0.00 in0.0 mm 0.00 in/hr0.0 mm/hr 0.00 in0.0 mm
03:39 AM 63.8°F17.7°C 60.2°F15.7°C 88% Calm Calm -- 30.12 in1020.0 mb 0.00 in0.0 mm 0.00 in/hr0.0 mm/hr 0.00 in0.0 mm
03:50 AM 63.6°F17.6°C 60.0°F15.6°C 88% Calm Calm -- 30.12 in1020.0 mb 0.00 in0.0 mm 0.00 in/hr0.0 mm/hr 0.00 in0.0 mm
04:00 AM 64.5°F18.1°C 60.5°F15.8°C 87% Calm Calm -- 30.12 in1020.0 mb 0.00 in0.0 mm 0.00 in/hr0.0 mm/hr 0.00 in0.0 mm
04:11 AM 64.7°F18.2°C 60.7°F15.9°C 87% Calm Calm -- 30.12 in1020.0 mb 0.00 in0.0 mm 0.00 in/hr0.0 mm/hr 0.00 in0.0 mm
04:21 AM 64.9°F18.3°C 61.3°F16.3°C 88% 0.9 mph SE1.4 kmh SE 1.2 mph1.9 kmh 30.12 in1020.0 mb 0.00 in0.0 mm 0.00 in/hr0.0 mm/hr 0.00 in0.0 mm
04:32 AM 64.5°F18.1°C 60.9°F16.1°C 88% Calm Calm 1.2 mph1.9 kmh 30.12 in1020.0 mb 0.00 in0.0 mm 0.00 in/hr0.0 mm/hr 0.00 in0.0 mm
04:42 AM 64.3°F17.9°C 60.7°F15.9°C 88% Calm Calm -- 30.12 in1020.0 mb 0.00 in0.0 mm 0.00 in/hr0.0 mm/hr 0.00 in0.0 mm
04:53 AM 64.3°F17.9°C 61.0°F16.1°C 89% Calm Calm -- 30.12 in1020.0 mb 0.00 in0.0 mm 0.00 in/hr0.0 mm/hr 0.00 in0.0 mm
05:03 AM 64.0°F17.8°C 60.7°F15.9°C 89% Calm Calm -- 30.12 in1020.0 mb 0.00 in0.0 mm 0.00 in/hr0.0 mm/hr 0.00 in0.0 mm
05:14 AM 64.0°F17.8°C 60.7°F15.9°C 89% Calm Calm -- 30.12 in1020.0 mb 0.00 in0.0 mm 0.00 in/hr0.0 mm/hr 0.00 in0.0 mm
05:24 AM 63.6°F17.6°C 60.3°F15.7°C 89% Calm Calm -- 30.11 in1019.6 mb 0.00 in0.0 mm 0.00 in/hr0.0 mm/hr 0.00 in0.0 mm
05:35 AM 63.4°F17.4°C 60.1°F15.6°C 89% Calm Calm -- 30.12 in1020.0 mb 0.00 in0.0 mm 0.00 in/hr0.0 mm/hr 0.00 in0.0 mm
05:45 AM 63.4°F17.4°C 60.4°F15.8°C 90% Calm Calm -- 30.12 in1020.0 mb 0.00 in0.0 mm 0.00 in/hr0.0 mm/hr 0.00 in0.0 mm
05:56 AM 63.4°F17.4°C 60.4°F15.8°C 90% Calm Calm -- 30.12 in1020.0 mb 0.00 in0.0 mm 0.00 in/hr0.0 mm/hr 0.00 in0.0 mm
06:06 AM 63.6°F17.6°C 60.6°F15.9°C 90% Calm Calm -- 30.12 in1020.0 mb 0.00 in0.0 mm 0.00 in/hr0.0 mm/hr 0.00 in0.0 mm
06:17 AM 64.3°F17.9°C 61.3°F16.3°C 90% Calm Calm -- 30.12 in1020.0 mb 0.00 in0.0 mm 0.00 in/hr0.0 mm/hr 0.00 in0.0 mm
06:27 AM 68.8°F20.4°C 64.5°F18.1°C 86% Calm Calm -- 30.12 in1020.0 mb 0.00 in0.0 mm 0.00 in/hr0.0 mm/hr 0.00 in0.0 mm
06:37 AM 72.1°F22.3°C 64.6°F18.1°C 77% Calm Calm -- 30.12 in1020.0 mb 0.00 in0.0 mm 0.00 in/hr0.0 mm/hr 0.00 in0.0 mm
06:48 AM 70.8°F21.6°C 62.3°F16.8°C 74% Calm Calm -- 30.12 in1020.0 mb 0.00 in0.0 mm 0.00 in/hr0.0 mm/hr 0.00 in0.0 mm
06:58 AM 67.9°F19.9°C 61.6°F16.4°C 80% Calm Calm -- 30.12 in1020.0 mb 0.00 in0.0 mm 0.00 in/hr0.0 mm/hr 0.00 in0.0 mm
07:09 AM 67.0°F19.4°C 61.4°F16.3°C 82% Calm Calm -- 30.12 in1020.0 mb 0.00 in0.0 mm 0.00 in/hr0.0 mm/hr 0.00 in0.0 mm
07:19 AM 66.9°F19.4°C 61.9°F16.6°C 84% Calm Calm -- 30.13 in1020.3 mb 0.00 in0.0 mm 0.00 in/hr0.0 mm/hr 0.00 in0.0 mm
07:30 AM 66.7°F19.3°C 62.0°F16.7°C 85% Calm Calm -- 30.13 in1020.3 mb 0.00 in0.0 mm 0.00 in/hr0.0 mm/hr 0.00 in0.0 mm
07:40 AM 66.7°F19.3°C 61.7°F16.5°C 84% Calm Calm -- 30.13 in1020.3 mb 0.00 in0.0 mm 0.00 in/hr0.0 mm/hr 0.00 in0.0 mm
07:51 AM 67.2°F19.6°C 61.9°F16.6°C 83% Calm Calm -- 30.14 in1020.7 mb 0.00 in0.0 mm 0.00 in/hr0.0 mm/hr 0.00 in0.0 mm
08:01 AM 69.4°F20.8°C 63.4°F17.4°C 81% Calm Calm -- 30.14 in1020.7 mb 0.00 in0.0 mm 0.00 in/hr0.0 mm/hr 0.00 in0.0 mm
08:12 AM 69.1°F20.6°C 62.4°F16.9°C 79% Calm Calm -- 30.14 in1020.7 mb 0.00 in0.0 mm 0.00 in/hr0.0 mm/hr 0.00 in0.0 mm
08:22 AM 70.1°F21.2°C 62.7°F17.1°C 77% Calm Calm -- 30.13 in1020.3 mb 0.00 in0.0 mm 0.00 in/hr0.0 mm/hr 0.00 in0.0 mm
08:33 AM 71.0°F21.7°C 62.5°F16.9°C 74% Calm Calm -- 30.14 in1020.7 mb 0.00 in0.0 mm 0.00 in/hr0.0 mm/hr 0.00 in0.0 mm
08:43 AM 71.1°F21.7°C 62.1°F16.7°C 73% Calm Calm -- 30.14 in1020.7 mb 0.00 in0.0 mm 0.00 in/hr0.0 mm/hr 0.00 in0.0 mm
08:54 AM 71.8°F22.1°C 61.7°F16.5°C 70% Calm Calm -- 30.14 in1020.7 mb 0.00 in0.0 mm 0.00 in/hr0.0 mm/hr 0.00 in0.0 mm
09:04 AM 71.4°F21.9°C 61.3°F16.3°C 70% Calm Calm -- 30.14 in1020.7 mb 0.00 in0.0 mm 0.00 in/hr0.0 mm/hr 0.00 in0.0 mm
09:15 AM 69.3°F20.7°C 60.8°F16.0°C 74% Calm Calm -- 30.14 in1020.7 mb 0.00 in0.0 mm 0.00 in/hr0.0 mm/hr 0.00 in0.0 mm
09:25 AM 67.9°F19.9°C 60.9°F16.1°C 78% Calm Calm -- 30.15 in1021.0 mb 0.02 in0.5 mm 0.12 in/hr3.0 mm/hr 0.02 in0.5 mm
09:36 AM 66.2°F19.0°C 60.2°F15.7°C 81% Calm Calm -- 30.15 in1021.0 mb 0.02 in0.5 mm 0.00 in/hr0.0 mm/hr 0.02 in0.5 mm
09:46 AM 65.4°F18.6°C 60.5°F15.8°C 84% Calm Calm -- 30.15 in1021.0 mb 0.02 in0.5 mm 0.00 in/hr0.0 mm/hr 0.02 in0.5 mm
09:56 AM 65.5°F18.6°C 60.2°F15.7°C 83% Calm Calm -- 30.15 in1021.0 mb 0.04 in1.0 mm 0.12 in/hr3.0 mm/hr 0.04 in1.0 mm
10:07 AM 66.7°F19.3°C 60.0°F15.6°C 79% Calm Calm -- 30.14 in1020.7 mb 0.04 in1.0 mm 0.00 in/hr0.0 mm/hr 0.04 in1.0 mm
10:17 AM 67.5°F19.7°C 60.5°F15.8°C 78% Calm Calm -- 30.14 in1020.7 mb 0.04 in1.0 mm 0.00 in/hr0.0 mm/hr 0.04 in1.0 mm
10:28 AM 68.5°F20.3°C 61.2°F16.2°C 77% Calm Calm -- 30.14 in1020.7 mb 0.04 in1.0 mm 0.00 in/hr0.0 mm/hr 0.04 in1.0 mm
10:38 AM 69.1°F20.6°C 60.3°F15.7°C 73% Calm Calm -- 30.14 in1020.7 mb 0.04 in1.0 mm 0.00 in/hr0.0 mm/hr 0.04 in1.0 mm
10:49 AM 69.9°F21.1°C 59.9°F15.5°C 70% Calm Calm 5.2 mph8.4 kmh 30.14 in1020.7 mb 0.04 in1.0 mm 0.00 in/hr0.0 mm/hr 0.04 in1.0 mm
10:59 AM 70.9°F21.6°C 60.0°F15.6°C 68% 1.2 mph WNW1.9 kmh WNW 1.6 mph2.6 kmh 30.14 in1020.7 mb 0.04 in1.0 mm 0.00 in/hr0.0 mm/hr 0.04 in1.0 mm
11:10 AM 69.4°F20.8°C 60.2°F15.7°C 72% 2.6 mph SE4.2 kmh SE 3.4 mph5.5 kmh 30.15 in1021.0 mb 0.00 in0.0 mm 0.00 in/hr0.0 mm/hr 0.04 in1.0 mm
11:20 AM 69.4°F20.8°C 58.9°F14.9°C 69% 7.0 mph SE11.3 kmh SE 10.2 mph16.4 kmh 30.14 in1020.7 mb 0.00 in0.0 mm 0.00 in/hr0.0 mm/hr 0.04 in1.0 mm
11:31 AM 69.1°F20.6°C 59.5°F15.3°C 71% 2.6 mph SE4.2 kmh SE 10.2 mph16.4 kmh 30.14 in1020.7 mb 0.00 in0.0 mm 0.00 in/hr0.0 mm/hr 0.04 in1.0 mm
11:41 AM 67.9°F19.9°C 58.7°F14.8°C 72% 6.6 mph SE10.6 kmh SE 8.8 mph14.2 kmh 30.13 in1020.3 mb 0.00 in0.0 mm 0.00 in/hr0.0 mm/hr 0.04 in1.0 mm
11:52 AM 68.6°F20.3°C 58.6°F14.8°C 70% 4.9 mph SE7.9 kmh SE 8.4 mph13.5 kmh 30.14 in1020.7 mb 0.00 in0.0 mm 0.00 in/hr0.0 mm/hr 0.04 in1.0 mm
12:02 PM 69.4°F20.8°C 58.2°F14.6°C 67% 3.6 mph SE5.8 kmh SE 6.6 mph10.6 kmh 30.13 in1020.3 mb 0.00 in0.0 mm 0.00 in/hr0.0 mm/hr 0.04 in1.0 mm
12:13 PM 70.7°F21.5°C 58.1°F14.5°C 64% 0.9 mph SSE1.4 kmh SSE 6.6 mph10.6 kmh 30.13 in1020.3 mb 0.00 in0.0 mm 0.00 in/hr0.0 mm/hr 0.04 in1.0 mm
12:23 PM 71.2°F21.8°C 56.7°F13.7°C 60% 1.2 mph SE1.9 kmh SE 7.0 mph11.3 kmh 30.12 in1020.0 mb 0.00 in0.0 mm 0.00 in/hr0.0 mm/hr 0.04 in1.0 mm
12:34 PM 72.9°F22.7°C 56.0°F13.3°C 55% 1.2 mph SE1.9 kmh SE 1.6 mph2.6 kmh 30.12 in1020.0 mb 0.00 in0.0 mm 0.00 in/hr0.0 mm/hr 0.04 in1.0 mm
12:44 PM 77.4°F25.2°C 58.0°F14.4°C 51% 0.3 mph SE0.5 kmh SE 4.8 mph7.7 kmh 30.11 in1019.6 mb 0.00 in0.0 mm 0.00 in/hr0.0 mm/hr 0.04 in1.0 mm
12:55 PM 77.1°F25.1°C 57.1°F13.9°C 50% 1.7 mph SE2.7 kmh SE 6.2 mph10.0 kmh 30.11 in1019.6 mb 0.00 in0.0 mm 0.00 in/hr0.0 mm/hr 0.04 in1.0 mm
01:05 PM 81.9°F27.7°C 57.2°F14.0°C 43% Calm Calm 3.0 mph4.8 kmh 30.10 in1019.3 mb 0.00 in0.0 mm 0.00 in/hr0.0 mm/hr 0.04 in1.0 mm
01:15 PM 80.3°F26.8°C 60.1°F15.6°C 50% Calm Calm 5.2 mph8.4 kmh 30.10 in1019.3 mb 0.00 in0.0 mm 0.00 in/hr0.0 mm/hr 0.04 in1.0 mm
01:26 PM 80.7°F27.1°C 56.8°F13.8°C 44% Calm Calm 5.8 mph9.3 kmh 30.10 in1019.3 mb 0.00 in0.0 mm 0.00 in/hr0.0 mm/hr 0.04 in1.0 mm
01:36 PM 82.2°F27.9°C 58.1°F14.5°C 44% Calm Calm -- 30.10 in1019.3 mb 0.00 in0.0 mm 0.00 in/hr0.0 mm/hr 0.04 in1.0 mm
01:47 PM 82.8°F28.2°C 59.3°F15.2°C 45% Calm Calm -- 30.10 in1019.3 mb 0.00 in0.0 mm 0.00 in/hr0.0 mm/hr 0.04 in1.0 mm
01:57 PM 81.1°F27.3°C 57.8°F14.3°C 45% 1.9 mph NW3.1 kmh NW 2.6 mph4.2 kmh 30.10 in1019.3 mb 0.00 in0.0 mm 0.00 in/hr0.0 mm/hr 0.04 in1.0 mm
02:08 PM 79.1°F26.2°C 56.6°F13.7°C 46% 4.6 mph NW7.4 kmh NW 6.2 mph10.0 kmh 30.09 in1019.0 mb 0.00 in0.0 mm 0.00 in/hr0.0 mm/hr 0.04 in1.0 mm
02:18 PM 77.5°F25.3°C 56.9°F13.8°C 49% 3.6 mph NW5.8 kmh NW 6.2 mph10.0 kmh 30.09 in1019.0 mb 0.00 in0.0 mm 0.00 in/hr0.0 mm/hr 0.04 in1.0 mm
02:29 PM 78.6°F25.9°C 57.3°F14.1°C 48% Calm Calm 4.8 mph7.7 kmh 30.08 in1018.6 mb 0.00 in0.0 mm 0.00 in/hr0.0 mm/hr 0.04 in1.0 mm
02:39 PM 80.5°F26.9°C 58.5°F14.7°C 47% Calm Calm -- 30.08 in1018.6 mb 0.00 in0.0 mm 0.00 in/hr0.0 mm/hr 0.04 in1.0 mm
02:50 PM 82.1°F27.8°C 58.6°F14.8°C 45% 3.3 mph W5.3 kmh W 4.4 mph7.1 kmh 30.07 in1018.3 mb 0.00 in0.0 mm 0.00 in/hr0.0 mm/hr 0.04 in1.0 mm
03:01 PM 79.4°F26.3°C 58.1°F14.5°C 48% 3.0 mph W4.8 kmh W 12.8 mph20.6 kmh 30.07 in1018.3 mb 0.00 in0.0 mm 0.00 in/hr0.0 mm/hr 0.04 in1.0 mm
03:11 PM 80.4°F26.9°C 59.6°F15.3°C 49% 3.6 mph WNW5.8 kmh WNW 7.6 mph12.2 kmh 30.07 in1018.3 mb 0.00 in0.0 mm 0.00 in/hr0.0 mm/hr 0.04 in1.0 mm
03:22 PM 84.6°F29.2°C 59.7°F15.4°C 43% Calm Calm 7.6 mph12.2 kmh 30.06 in1017.9 mb 0.00 in0.0 mm 0.00 in/hr0.0 mm/hr 0.04 in1.0 mm
03:32 PM 81.2°F27.3°C 57.8°F14.3°C 45% 2.3 mph NW3.7 kmh NW 3.0 mph4.8 kmh 30.06 in1017.9 mb 0.00 in0.0 mm 0.00 in/hr0.0 mm/hr 0.04 in1.0 mm
03:43 PM 79.5°F26.4°C 58.1°F14.5°C 48% Calm Calm 1.6 mph2.6 kmh 30.06 in1017.9 mb 0.00 in0.0 mm 0.00 in/hr0.0 mm/hr 0.04 in1.0 mm
03:53 PM 84.1°F28.9°C 59.2°F15.1°C 43% Calm Calm 1.2 mph1.9 kmh 30.06 in1017.9 mb 0.00 in0.0 mm 0.00 in/hr0.0 mm/hr 0.04 in1.0 mm
04:04 PM 84.4°F29.1°C 58.1°F14.5°C 41% Calm Calm 6.2 mph10.0 kmh 30.05 in1017.6 mb 0.00 in0.0 mm 0.00 in/hr0.0 mm/hr 0.04 in1.0 mm
04:14 PM 84.1°F28.9°C 57.1°F13.9°C 40% 4.7 mph WNW7.6 kmh WNW 30.8 mph49.6 kmh 30.05 in1017.6 mb 0.00 in0.0 mm 0.00 in/hr0.0 mm/hr 0.04 in1.0 mm
04:24 PM 72.6°F22.6°C 58.1°F14.5°C 60% 12.3 mph NE19.8 kmh NE 32.6 mph52.5 kmh 30.06 in1017.9 mb 0.00 in0.0 mm 0.00 in/hr0.0 mm/hr 0.04 in1.0 mm
04:35 PM 71.8°F22.1°C 58.8°F14.9°C 63% 1.2 mph NW1.9 kmh NW 37.4 mph60.2 kmh 30.07 in1018.3 mb 0.00 in0.0 mm 0.00 in/hr0.0 mm/hr 0.04 in1.0 mm
04:45 PM 67.7°F19.8°C 57.7°F14.3°C 70% 11.6 mph NE18.7 kmh NE 44.2 mph71.1 kmh 30.08 in1018.6 mb 0.08 in2.0 mm 0.48 in/hr12.2 mm/hr 0.12 in3.0 mm
04:56 PM 63.9°F17.7°C 57.0°F13.9°C 78% 5.4 mph NE8.7 kmh NE 21.4 mph34.4 kmh 30.07 in1018.3 mb 0.10 in2.5 mm 0.11 in/hr2.8 mm/hr 0.14 in3.6 mm
05:06 PM 65.1°F18.4°C 58.9°F14.9°C 80% 4.1 mph NE6.6 kmh NE 6.6 mph10.6 kmh 30.08 in1018.6 mb 0.10 in2.5 mm 0.00 in/hr0.0 mm/hr 0.14 in3.6 mm
05:17 PM 65.3°F18.5°C 59.7°F15.4°C 82% 10.6 mph NE17.1 kmh NE 17.4 mph28.0 kmh 30.08 in1018.6 mb 0.10 in2.5 mm 0.00 in/hr0.0 mm/hr 0.14 in3.6 mm
05:27 PM 66.3°F19.1°C 60.7°F15.9°C 82% 2.6 mph NE4.2 kmh NE 10.2 mph16.4 kmh 30.09 in1019.0 mb 0.10 in2.5 mm 0.00 in/hr0.0 mm/hr 0.14 in3.6 mm
05:38 PM 66.5°F19.2°C 59.9°F15.5°C 79% 3.3 mph NE5.3 kmh NE 9.8 mph15.8 kmh 30.08 in1018.6 mb 0.10 in2.5 mm 0.00 in/hr0.0 mm/hr 0.14 in3.6 mm
05:48 PM 65.8°F18.8°C 59.8°F15.4°C 81% Calm Calm 10.2 mph16.4 kmh 30.08 in1018.6 mb 0.10 in2.5 mm 0.00 in/hr0.0 mm/hr 0.14 in3.6 mm
05:59 PM 65.1°F18.4°C 58.5°F14.7°C 79% Calm Calm -- 30.10 in1019.3 mb 0.10 in2.5 mm 0.00 in/hr0.0 mm/hr 0.14 in3.6 mm
06:09 PM 64.9°F18.3°C 58.7°F14.8°C 80% Calm Calm -- 30.09 in1019.0 mb 0.00 in0.0 mm 0.00 in/hr0.0 mm/hr 0.14 in3.6 mm
06:20 PM 65.1°F18.4°C 59.2°F15.1°C 81% Calm Calm -- 30.09 in1019.0 mb 0.00 in0.0 mm 0.00 in/hr0.0 mm/hr 0.14 in3.6 mm
06:30 PM 65.3°F18.5°C 59.4°F15.2°C 81% 4.2 mph N6.8 kmh N 7.6 mph12.2 kmh 30.11 in1019.6 mb 0.00 in0.0 mm 0.00 in/hr0.0 mm/hr 0.14 in3.6 mm
06:41 PM 61.9°F16.6°C 58.3°F14.6°C 88% 5.8 mph NE9.3 kmh NE 33.0 mph53.1 kmh 30.11 in1019.6 mb 0.16 in4.1 mm 0.87 in/hr22.1 mm/hr 0.30 in7.6 mm
06:51 PM 61.9°F16.6°C 58.6°F14.8°C 89% 1.5 mph NE2.4 kmh NE 23.2 mph37.3 kmh 30.10 in1019.3 mb 0.26 in6.6 mm 0.60 in/hr15.2 mm/hr 0.41 in10.4 mm
07:03 PM 60.9°F16.1°C 57.6°F14.2°C 89% Calm Calm 9.2 mph14.8 kmh 30.10 in1019.3 mb 0.29 in7.4 mm 0.04 in/hr1.0 mm/hr 0.43 in10.9 mm
07:14 PM 60.9°F16.1°C 57.6°F14.2°C 89% Calm Calm -- 30.10 in1019.3 mb 0.29 in7.4 mm 0.00 in/hr0.0 mm/hr 0.43 in10.9 mm
07:24 PM 61.5°F16.4°C 58.5°F14.7°C 90% Calm Calm -- 30.10 in1019.3 mb 0.29 in7.4 mm 0.00 in/hr0.0 mm/hr 0.43 in10.9 mm
07:34 PM 61.6°F16.4°C 58.6°F14.8°C 90% Calm Calm -- 30.11 in1019.6 mb 0.29 in7.4 mm 0.00 in/hr0.0 mm/hr 0.43 in10.9 mm
07:45 PM 61.5°F16.4°C 58.5°F14.7°C 90% Calm Calm -- 30.11 in1019.6 mb 0.29 in7.4 mm 0.00 in/hr0.0 mm/hr 0.43 in10.9 mm
07:55 PM 61.6°F16.4°C 58.6°F14.8°C 90% Calm Calm -- 30.10 in1019.3 mb 0.29 in7.4 mm 0.00 in/hr0.0 mm/hr 0.43 in10.9 mm
08:06 PM 61.8°F16.6°C 58.8°F14.9°C 90% Calm Calm -- 30.12 in1020.0 mb 0.00 in0.0 mm 0.00 in/hr0.0 mm/hr 0.43 in10.9 mm
08:16 PM 62.2°F16.8°C 59.5°F15.3°C 91% Calm Calm -- 30.12 in1020.0 mb 0.02 in0.5 mm 0.12 in/hr3.0 mm/hr 0.45 in11.4 mm
08:27 PM 62.2°F16.8°C 59.5°F15.3°C 91% Calm Calm -- 30.13 in1020.3 mb 0.02 in0.5 mm 0.00 in/hr0.0 mm/hr 0.45 in11.4 mm
08:37 PM 62.5°F16.9°C 59.8°F15.4°C 91% Calm Calm -- 30.14 in1020.7 mb 0.02 in0.5 mm 0.00 in/hr0.0 mm/hr 0.45 in11.4 mm
08:48 PM 62.5°F16.9°C 59.8°F15.4°C 91% Calm Calm -- 30.13 in1020.3 mb 0.02 in0.5 mm 0.00 in/hr0.0 mm/hr 0.45 in11.4 mm
08:58 PM 62.5°F16.9°C 59.8°F15.4°C 91% Calm Calm -- 30.14 in1020.7 mb 0.02 in0.5 mm 0.00 in/hr0.0 mm/hr 0.45 in11.4 mm
09:09 PM 62.5°F16.9°C 59.8°F15.4°C 91% Calm Calm -- 30.15 in1021.0 mb 0.02 in0.5 mm 0.00 in/hr0.0 mm/hr 0.45 in11.4 mm
09:19 PM 62.5°F16.9°C 59.8°F15.4°C 91% Calm Calm -- 30.15 in1021.0 mb 0.02 in0.5 mm 0.00 in/hr0.0 mm/hr 0.45 in11.4 mm
09:30 PM 62.7°F17.1°C 60.0°F15.6°C 91% Calm Calm -- 30.15 in1021.0 mb 0.02 in0.5 mm 0.00 in/hr0.0 mm/hr 0.47 in11.9 mm
09:40 PM 62.7°F17.1°C 60.0°F15.6°C 91% Calm Calm -- 30.14 in1020.7 mb 0.04 in1.0 mm 0.12 in/hr3.0 mm/hr 0.49 in12.4 mm
09:51 PM 62.5°F16.9°C 59.8°F15.4°C 91% Calm Calm -- 30.14 in1020.7 mb 0.04 in1.0 mm 0.00 in/hr0.0 mm/hr 0.49 in12.4 mm
10:01 PM 62.2°F16.8°C 59.5°F15.3°C 91% Calm Calm -- 30.14 in1020.7 mb 0.04 in1.0 mm 0.00 in/hr0.0 mm/hr 0.49 in12.4 mm
10:12 PM 62.0°F16.7°C 59.6°F15.3°C 92% Calm Calm -- 30.14 in1020.7 mb 0.04 in1.0 mm 0.00 in/hr0.0 mm/hr 0.49 in12.4 mm
10:22 PM 62.2°F16.8°C 59.8°F15.4°C 92% Calm Calm -- 30.13 in1020.3 mb 0.04 in1.0 mm 0.00 in/hr0.0 mm/hr 0.49 in12.4 mm
10:33 PM 62.0°F16.7°C 59.6°F15.3°C 92% Calm Calm -- 30.12 in1020.0 mb 0.04 in1.0 mm 0.00 in/hr0.0 mm/hr 0.49 in12.4 mm
10:43 PM 62.0°F16.7°C 59.6°F15.3°C 92% Calm Calm -- 30.13 in1020.3 mb 0.04 in1.0 mm 0.00 in/hr0.0 mm/hr 0.49 in12.4 mm
10:54 PM 62.0°F16.7°C 59.6°F15.3°C 92% Calm Calm -- 30.12 in1020.0 mb 0.04 in1.0 mm 0.00 in/hr0.0 mm/hr 0.49 in12.4 mm
11:04 PM 61.8°F16.6°C 59.4°F15.2°C 92% Calm Calm -- 30.12 in1020.0 mb 0.00 in0.0 mm 0.00 in/hr0.0 mm/hr 0.49 in12.4 mm
11:15 PM 61.8°F16.6°C 59.4°F15.2°C 92% Calm Calm -- 30.12 in1020.0 mb 0.00 in0.0 mm 0.00 in/hr0.0 mm/hr 0.49 in12.4 mm
11:25 PM 62.0°F16.7°C 59.3°F15.2°C 91% Calm Calm -- 30.11 in1019.6 mb 0.00 in0.0 mm 0.00 in/hr0.0 mm/hr 0.49 in12.4 mm
11:36 PM 62.2°F16.8°C 59.2°F15.1°C 90% Calm Calm -- 30.11 in1019.6 mb 0.00 in0.0 mm 0.00 in/hr0.0 mm/hr 0.49 in12.4 mm
11:46 PM 62.0°F16.7°C 58.7°F14.8°C 89% Calm Calm -- 30.12 in1020.0 mb 0.00 in0.0 mm 0.00 in/hr0.0 mm/hr 0.49 in12.4 mm
11:56 PM 62.0°F16.7°C 58.7°F14.8°C 89% Calm Calm -- 30.11 in1019.6 mb 0.00 in0.0 mm 0.00 in/hr0.0 mm/hr 0.49 in12.4 mm